createdAt,value
2023-02-05T00:01:32.636Z,8.60
2023-02-05T00:03:59.547Z,4.97
2023-02-05T00:06:27.066Z,15.15
2023-02-05T00:08:53.925Z,7.63
2023-02-05T00:11:20.717Z,9.23
2023-02-05T00:13:47.528Z,7.18
2023-02-05T00:16:19.200Z,5.15
2023-02-05T00:18:46.314Z,5.28
2023-02-05T00:21:14.737Z,5.88
2023-02-05T00:23:42.016Z,5.65
2023-02-05T00:26:10.784Z,3.33
2023-02-05T00:28:38.214Z,3.63
2023-02-05T00:31:13.664Z,3.58
2023-02-05T00:33:41.118Z,7.15
2023-02-05T00:36:08.706Z,19.00
2023-02-05T00:38:36.365Z,4.88
2023-02-05T00:41:03.990Z,2.95
2023-02-05T00:43:31.362Z,7.00
2023-02-05T00:45:58.266Z,6.20
2023-02-05T00:48:25.049Z,6.45
2023-02-05T00:50:53.163Z,7.45
2023-02-05T00:53:21.276Z,3.70
2023-02-05T00:55:48.130Z,8.48
2023-02-05T00:58:15.118Z,6.60
2023-02-05T01:00:42.681Z,5.45
2023-02-05T01:03:10.264Z,4.47
2023-02-05T01:05:38.352Z,2.95
2023-02-05T01:08:07.656Z,4.38
2023-02-05T01:10:34.893Z,4.65
2023-02-05T01:13:01.744Z,3.80
2023-02-05T01:15:28.501Z,4.78
2023-02-05T01:17:55.323Z,6.25
2023-02-05T01:20:22.140Z,8.80
2023-02-05T01:22:49.628Z,6.05
2023-02-05T01:25:16.431Z,6.03
2023-02-05T01:27:43.349Z,7.93
2023-02-05T01:30:14.260Z,6.88
2023-02-05T01:32:41.718Z,8.90
2023-02-05T01:35:09.398Z,10.65
2023-02-05T01:37:36.183Z,8.82
2023-02-05T01:40:03.641Z,6.35
2023-02-05T01:42:32.160Z,8.65
2023-02-05T01:45:55.214Z,6.50
2023-02-05T01:48:30.254Z,10.20
2023-02-05T01:51:07.045Z,4.57
2023-02-05T01:53:36.662Z,4.10
2023-02-05T01:56:09.300Z,9.50
2023-02-05T01:58:42.302Z,5.35
2023-02-05T02:01:09.105Z,5.13
2023-02-05T02:03:36.100Z,11.82
2023-02-05T02:06:04.998Z,4.13
2023-02-05T02:08:33.722Z,5.25
2023-02-05T02:11:05.658Z,7.53
2023-02-05T02:13:36.374Z,6.73
2023-02-05T02:16:05.207Z,4.47
2023-02-05T02:18:33.563Z,4.85
2023-02-05T02:21:19.347Z,4.78
2023-02-05T02:24:20.308Z,5.20
2023-02-05T02:27:05.519Z,4.88
2023-02-05T02:29:40.921Z,6.75
2023-02-05T02:32:48.471Z,4.43
2023-02-05T02:35:28.713Z,4.43
2023-02-05T02:38:22.713Z,4.00
2023-02-05T02:40:55.592Z,5.47
2023-02-05T02:43:37.191Z,5.30
2023-02-05T02:46:11.676Z,4.65
2023-02-05T02:48:40.070Z,7.28
2023-02-05T02:51:09.775Z,3.90
2023-02-05T02:53:42.119Z,4.78
2023-02-05T02:56:12.631Z,3.78
2023-02-05T02:58:49.959Z,3.85
2023-02-05T03:01:21.470Z,4.68
2023-02-05T03:04:37.028Z,13.82
2023-02-05T03:07:29.989Z,4.78
2023-02-05T03:10:03.201Z,3.50
2023-02-05T03:12:30.969Z,4.85
2023-02-05T03:14:58.001Z,4.18
2023-02-05T03:17:26.040Z,4.60
2023-02-05T03:20:04.452Z,4.63
2023-02-05T03:22:31.267Z,9.35
2023-02-05T03:24:58.289Z,7.65
2023-02-05T03:27:25.246Z,4.07
2023-02-05T03:29:52.032Z,7.10
2023-02-05T03:32:36.543Z,5.25
2023-02-05T03:35:48.783Z,6.00
2023-02-05T03:38:37.799Z,10.48
2023-02-05T03:41:21.369Z,10.73
2023-02-05T03:44:01.038Z,6.18
2023-02-05T03:46:44.666Z,11.75
2023-02-05T03:50:02.589Z,17.50
2023-02-05T03:52:37.842Z,2.42
2023-02-05T03:55:23.513Z,4.40
2023-02-05T03:58:06.360Z,5.28
2023-02-05T04:00:34.705Z,9.95
2023-02-05T04:03:01.629Z,9.90
2023-02-05T04:05:28.385Z,7.20
2023-02-05T04:07:55.289Z,7.13
2023-02-05T04:10:22.199Z,9.00
2023-02-05T04:12:49.010Z,4.07
2023-02-05T04:15:15.853Z,7.53
2023-02-05T04:17:42.663Z,5.28
2023-02-05T04:20:10.263Z,4.38
2023-02-05T04:22:37.048Z,10.68
2023-02-05T04:25:04.013Z,10.23
2023-02-05T04:27:30.733Z,5.35
2023-02-05T04:29:57.485Z,8.95
2023-02-05T04:32:25.514Z,5.57
2023-02-05T04:34:52.323Z,8.00
2023-02-05T04:37:19.177Z,6.93
2023-02-05T04:39:47.420Z,4.70
2023-02-05T04:42:14.198Z,8.75
2023-02-05T04:44:40.925Z,4.43
2023-02-05T04:47:07.768Z,5.30
2023-02-05T04:49:34.665Z,4.00
2023-02-05T04:52:01.495Z,6.70
2023-02-05T04:54:28.656Z,4.78
2023-02-05T04:56:55.377Z,5.07
2023-02-05T04:59:22.509Z,7.82
2023-02-05T05:01:49.348Z,7.05
2023-02-05T05:04:16.116Z,9.13
2023-02-05T05:06:42.843Z,3.90
2023-02-05T05:09:09.631Z,5.55
2023-02-05T05:11:36.389Z,7.68
2023-02-05T05:14:03.130Z,10.23
2023-02-05T05:16:29.910Z,11.70
2023-02-05T05:18:56.846Z,5.03
2023-02-05T05:21:23.685Z,6.47
2023-02-05T05:23:50.458Z,9.18
2023-02-05T05:26:17.359Z,11.95
2023-02-05T05:28:44.078Z,10.18
2023-02-05T05:31:18.045Z,6.78
2023-02-05T05:33:45.126Z,5.82
2023-02-05T05:36:12.600Z,3.78
2023-02-05T05:38:39.406Z,5.88
2023-02-05T05:41:25.411Z,9.25
2023-02-05T05:43:54.806Z,5.03
2023-02-05T05:46:26.386Z,6.10
2023-02-05T05:48:56.770Z,6.20
2023-02-05T05:51:25.769Z,6.32
2023-02-05T05:53:53.082Z,3.70
2023-02-05T05:56:20.534Z,3.83
2023-02-05T05:58:48.464Z,6.75
2023-02-05T06:01:17.918Z,3.55
2023-02-05T06:03:44.782Z,5.05
2023-02-05T06:06:12.821Z,2.63
2023-02-05T06:08:39.777Z,7.57
2023-02-05T06:11:06.880Z,7.55
2023-02-05T06:13:34.870Z,6.15
2023-02-05T06:16:01.848Z,3.83
2023-02-05T06:18:29.158Z,4.28
2023-02-05T06:20:55.965Z,4.20
2023-02-05T06:23:22.729Z,5.15
2023-02-05T06:25:49.551Z,5.00
2023-02-05T06:28:16.446Z,3.40
2023-02-05T06:30:43.393Z,6.15
2023-02-05T06:33:12.812Z,9.10
2023-02-05T06:35:41.395Z,4.13
2023-02-05T06:38:08.389Z,5.25
2023-02-05T06:40:35.617Z,8.07
2023-02-05T06:43:02.422Z,4.72
2023-02-05T06:45:29.178Z,6.28
2023-02-05T06:47:56.416Z,6.88
2023-02-05T06:50:24.074Z,4.50
2023-02-05T06:52:51.406Z,4.13
2023-02-05T06:55:18.822Z,3.88
2023-02-05T06:57:45.640Z,9.40
2023-02-05T07:00:13.685Z,6.05
2023-02-05T07:02:40.529Z,6.45
2023-02-05T07:05:07.656Z,6.90
2023-02-05T07:07:34.634Z,7.82
2023-02-05T07:10:01.790Z,5.55
2023-02-05T07:12:28.748Z,4.40
2023-02-05T07:14:55.550Z,5.35
2023-02-05T07:17:22.405Z,8.80
2023-02-05T07:19:49.284Z,9.13
2023-02-05T07:22:16.496Z,6.22
2023-02-05T07:24:43.253Z,6.82
2023-02-05T07:27:10.056Z,15.90
2023-02-05T07:29:36.774Z,5.10
2023-02-05T07:32:03.807Z,6.28
2023-02-05T07:34:30.591Z,5.55
2023-02-05T07:36:57.392Z,3.15
2023-02-05T07:39:24.262Z,6.05
2023-02-05T07:41:53.672Z,7.13
2023-02-05T07:44:21.664Z,8.00
2023-02-05T07:46:48.832Z,11.82
2023-02-05T07:49:15.672Z,9.50
2023-02-05T07:51:42.473Z,10.77
2023-02-05T07:54:11.016Z,7.80
2023-02-05T07:56:37.807Z,6.70
2023-02-05T07:59:04.810Z,6.03
2023-02-05T08:01:32.079Z,9.63
2023-02-05T08:03:58.883Z,9.25
2023-02-05T08:06:25.884Z,11.52
2023-02-05T08:08:52.930Z,15.00
2023-02-05T08:11:21.139Z,18.30
2023-02-05T08:13:48.122Z,12.98
2023-02-05T08:16:16.149Z,14.18
2023-02-05T08:18:47.124Z,9.52
2023-02-05T08:21:13.904Z,9.93
2023-02-05T08:23:40.661Z,15.52
2023-02-05T08:26:07.602Z,18.25
2023-02-05T08:28:34.404Z,16.10
2023-02-05T08:31:01.219Z,12.80
2023-02-05T08:33:28.008Z,15.52
2023-02-05T08:35:54.729Z,8.75
2023-02-05T08:38:21.479Z,8.45
2023-02-05T08:40:48.277Z,10.43
2023-02-05T08:43:15.051Z,8.85
2023-02-05T08:45:48.020Z,9.35
2023-02-05T08:48:15.178Z,9.45
2023-02-05T08:50:46.276Z,11.77
2023-02-05T08:53:13.085Z,9.32
2023-02-05T08:55:39.862Z,11.73
2023-02-05T08:58:06.594Z,5.72
2023-02-05T09:00:33.413Z,8.00
2023-02-05T09:03:00.150Z,7.85
2023-02-05T09:05:26.909Z,4.70
2023-02-05T09:07:53.655Z,5.63
2023-02-05T09:10:20.455Z,7.90
2023-02-05T09:12:48.881Z,10.82
2023-02-05T09:15:15.613Z,6.57
2023-02-05T09:17:42.393Z,8.70
2023-02-05T09:20:10.501Z,9.25
2023-02-05T09:22:38.049Z,11.38
2023-02-05T09:25:07.139Z,6.63
2023-02-05T09:27:34.249Z,5.68
2023-02-05T09:30:01.138Z,8.00
2023-02-05T09:32:27.913Z,19.92
2023-02-05T09:34:54.671Z,17.00
2023-02-05T09:37:22.620Z,14.20
2023-02-05T09:43:12.622Z,12.43
2023-02-05T09:46:02.662Z,11.40
2023-02-05T09:48:49.369Z,12.95
2023-02-05T09:51:33.974Z,12.38
2023-02-05T09:54:18.803Z,10.45
2023-02-05T09:56:46.979Z,9.48
2023-02-05T09:59:18.047Z,8.93
2023-02-05T10:01:52.584Z,8.45
2023-02-05T10:04:19.716Z,9.55
2023-02-05T10:07:05.306Z,11.55
2023-02-05T10:09:50.686Z,7.72
2023-02-05T10:12:52.521Z,11.57
2023-02-05T10:15:48.786Z,8.38
2023-02-05T10:18:35.146Z,6.72
2023-02-05T10:21:42.351Z,6.43
2023-02-05T10:24:39.469Z,9.57
2023-02-05T10:27:22.342Z,10.35
2023-02-05T10:30:21.518Z,9.05
2023-02-05T10:33:39.523Z,13.02
2023-02-05T10:36:09.918Z,7.43
2023-02-05T10:38:44.525Z,19.17
2023-02-05T10:41:22.783Z,31.80
2023-02-05T10:44:03.859Z,21.02
2023-02-05T10:46:35.436Z,16.48
2023-02-05T10:49:15.664Z,7.18
2023-02-05T10:51:45.318Z,14.20
2023-02-05T10:54:29.351Z,5.40
2023-02-05T10:56:58.456Z,9.63
2023-02-05T10:59:30.277Z,3.38
2023-02-05T11:02:03.130Z,7.38
2023-02-05T11:07:24.125Z,8.23
2023-02-05T11:09:50.966Z,3.45
2023-02-05T11:12:30.756Z,13.70
2023-02-05T11:15:01.154Z,5.80
2023-02-05T11:17:32.221Z,7.13
2023-02-05T11:20:07.448Z,9.32
2023-02-05T11:22:39.508Z,4.93
2023-02-05T11:25:18.788Z,4.17
2023-02-05T11:28:02.242Z,10.25
2023-02-05T11:30:50.790Z,8.32
2023-02-05T11:33:26.640Z,6.05
2023-02-05T11:35:58.238Z,10.48
2023-02-05T11:38:35.435Z,9.77
2023-02-05T11:41:08.206Z,5.68
2023-02-05T11:43:39.029Z,11.30
2023-02-05T11:46:10.588Z,6.15
2023-02-05T11:48:43.514Z,9.82
2023-02-05T11:53:56.162Z,6.18
2023-02-05T11:56:25.608Z,16.38
2023-02-05T11:59:05.071Z,33.55
2023-02-05T12:01:36.209Z,24.48
2023-02-05T12:04:11.806Z,25.40
2023-02-05T12:07:01.803Z,13.27
2023-02-05T12:09:28.566Z,7.70
2023-02-05T12:12:28.937Z,15.88
2023-02-05T12:15:19.216Z,17.58
2023-02-05T12:18:18.962Z,7.22
2023-02-05T12:21:04.829Z,12.02
2023-02-05T12:24:34.956Z,13.18
2023-02-05T12:27:35.117Z,15.07
2023-02-05T12:30:10.799Z,9.45
2023-02-05T12:33:24.005Z,7.80
2023-02-05T12:36:17.964Z,5.53
2023-02-05T12:39:04.595Z,5.05
2023-02-05T12:41:44.591Z,4.40
2023-02-05T12:44:20.413Z,9.45
2023-02-05T12:47:14.066Z,5.25
2023-02-05T12:50:28.490Z,3.78
2023-02-05T12:53:43.864Z,8.70
2023-02-05T12:56:28.822Z,10.75
2023-02-05T12:59:25.076Z,18.00
2023-02-05T13:02:20.380Z,6.93
2023-02-05T13:04:57.293Z,12.63
2023-02-05T13:07:38.831Z,10.57
2023-02-05T13:10:31.362Z,6.65
2023-02-05T13:13:07.327Z,10.45
2023-02-05T13:15:43.877Z,15.13
2023-02-05T13:18:24.270Z,5.88
2023-02-05T13:21:16.646Z,10.85
2023-02-05T13:24:04.318Z,8.52
2023-02-05T13:26:58.003Z,6.78
2023-02-05T13:29:29.382Z,5.63
2023-02-05T13:32:15.231Z,10.15
2023-02-05T13:34:42.874Z,9.27
2023-02-05T13:38:10.432Z,2.60
2023-02-05T13:41:11.094Z,5.22
2023-02-05T13:44:08.196Z,4.10
2023-02-05T13:47:38.255Z,6.57
2023-02-05T13:50:57.257Z,5.18
2023-02-05T13:54:04.558Z,12.35
2023-02-05T13:57:01.795Z,11.10
2023-02-05T13:59:40.342Z,7.55
2023-02-05T14:02:36.249Z,6.30
2023-02-05T14:05:04.818Z,14.65
2023-02-05T14:07:37.645Z,10.85
2023-02-05T14:12:38.517Z,6.13
2023-02-05T14:15:17.613Z,6.82
2023-02-05T14:17:44.352Z,8.55
2023-02-05T14:20:26.375Z,7.57
2023-02-05T14:23:00.986Z,24.40
2023-02-05T14:25:39.672Z,14.75
2023-02-05T14:28:15.571Z,20.70
2023-02-05T14:30:58.922Z,25.00
2023-02-05T14:33:35.181Z,11.48
2023-02-05T14:36:17.215Z,21.52
2023-02-05T14:39:06.539Z,11.77
2023-02-05T14:41:39.403Z,3.90
2023-02-05T14:47:03.376Z,12.02
2023-02-05T14:49:33.113Z,11.93
2023-02-05T14:52:07.993Z,12.88
2023-02-05T14:54:47.091Z,9.02
2023-02-05T14:57:35.712Z,11.00
2023-02-05T15:00:21.458Z,13.15
2023-02-05T15:03:12.755Z,19.08
2023-02-05T15:05:48.973Z,16.15
2023-02-05T15:08:27.859Z,11.20
2023-02-05T15:11:18.387Z,14.00
2023-02-05T15:14:22.654Z,26.42
2023-02-05T15:17:30.647Z,24.90
2023-02-05T15:20:04.705Z,24.70
2023-02-05T15:22:50.488Z,28.73
2023-02-05T15:25:33.884Z,15.57
2023-02-05T15:28:26.032Z,14.52
2023-02-05T15:31:39.079Z,11.70
2023-02-05T15:34:39.161Z,46.60
2023-02-05T15:37:33.673Z,44.67
2023-02-05T15:40:12.779Z,42.03
2023-02-05T15:42:43.441Z,32.88
2023-02-05T15:45:27.820Z,36.85
2023-02-05T15:48:12.001Z,28.35
2023-02-05T15:50:49.602Z,24.02
2023-02-05T15:53:33.205Z,20.48
2023-02-05T15:56:42.359Z,16.65
2023-02-05T15:59:16.126Z,15.38
2023-02-05T16:01:46.931Z,21.80
2023-02-05T16:04:31.521Z,20.65
2023-02-05T16:06:59.751Z,21.17
2023-02-05T16:09:29.752Z,11.10
2023-02-05T16:11:56.885Z,11.15
2023-02-05T16:14:27.900Z,12.45
2023-02-05T16:17:13.724Z,15.77
2023-02-05T16:19:54.489Z,17.48
2023-02-05T16:22:36.736Z,14.13
2023-02-05T16:25:19.317Z,22.03
2023-02-05T16:27:49.774Z,15.95
2023-02-05T16:30:42.729Z,18.83
2023-02-05T16:33:34.746Z,20.63
2023-02-05T16:36:05.626Z,13.32
2023-02-05T16:38:33.121Z,13.30
2023-02-05T16:41:19.700Z,8.98
2023-02-05T16:43:46.601Z,8.07
2023-02-05T16:46:14.655Z,8.07
2023-02-05T16:48:47.147Z,6.47
2023-02-05T16:51:52.784Z,7.20
2023-02-05T16:54:19.421Z,10.38
2023-02-05T16:57:01.178Z,11.80
2023-02-05T16:59:44.886Z,13.13
2023-02-05T17:02:40.132Z,9.75
2023-02-05T17:05:25.174Z,9.80
2023-02-05T17:08:06.904Z,10.52
2023-02-05T17:10:53.373Z,10.52
2023-02-05T17:13:43.964Z,9.00
2023-02-05T17:16:29.223Z,9.95
2023-02-05T17:19:05.488Z,9.73
2023-02-05T17:21:36.955Z,9.63
2023-02-05T17:24:09.184Z,8.02
2023-02-05T17:26:40.893Z,9.25
2023-02-05T17:29:15.256Z,7.82
2023-02-05T17:31:42.326Z,15.82
2023-02-05T17:34:11.228Z,10.15
2023-02-05T17:36:37.983Z,7.05
2023-02-05T17:39:04.772Z,13.13
2023-02-05T17:41:55.495Z,11.30
2023-02-05T17:44:22.321Z,10.73
2023-02-05T17:46:49.661Z,9.90
2023-02-05T17:49:16.376Z,14.40
2023-02-05T17:51:43.997Z,12.18
2023-02-05T17:54:20.168Z,5.25
2023-02-05T17:56:48.471Z,7.38
2023-02-05T17:59:19.131Z,3.67
2023-02-05T18:01:46.741Z,8.68
2023-02-05T18:04:13.654Z,7.38
2023-02-05T18:06:41.523Z,3.92
2023-02-05T18:09:09.192Z,8.52
2023-02-05T18:11:36.070Z,6.25
2023-02-05T18:14:02.851Z,5.25
2023-02-05T18:16:29.672Z,4.43
2023-02-05T18:18:56.930Z,6.22
2023-02-05T18:21:24.716Z,5.22
2023-02-05T18:23:52.921Z,6.00
2023-02-05T18:26:20.327Z,6.10
2023-02-05T18:28:47.393Z,4.55
2023-02-05T18:31:15.474Z,6.82
2023-02-05T18:33:42.409Z,9.77
2023-02-05T18:36:14.278Z,10.07
2023-02-05T18:38:45.943Z,7.70
2023-02-05T18:41:21.837Z,10.32
2023-02-05T18:43:48.667Z,5.55
2023-02-05T18:46:20.760Z,5.80
2023-02-05T18:48:49.425Z,3.42
2023-02-05T18:51:22.002Z,3.45
2023-02-05T18:53:49.488Z,2.40
2023-02-05T18:56:23.322Z,3.78
2023-02-05T18:59:05.930Z,4.68
2023-02-05T19:01:38.531Z,4.20
2023-02-05T19:04:13.236Z,4.32
2023-02-05T19:06:49.116Z,3.50
2023-02-05T19:09:15.877Z,3.60
2023-02-05T19:11:44.161Z,3.85
2023-02-05T19:14:13.604Z,2.17
2023-02-05T19:16:40.843Z,1.52
2023-02-05T19:19:07.966Z,2.17
2023-02-05T19:21:36.235Z,1.90
2023-02-05T19:24:07.228Z,1.23
2023-02-05T19:26:36.719Z,2.00
2023-02-05T19:29:08.478Z,1.42
2023-02-05T19:31:37.472Z,2.05
2023-02-05T19:34:05.127Z,1.60
2023-02-05T19:36:32.400Z,1.35
2023-02-05T19:39:05.147Z,3.15
2023-02-05T19:41:35.009Z,2.17
2023-02-05T19:44:05.882Z,6.40
2023-02-05T19:46:44.408Z,2.75
2023-02-05T19:49:20.261Z,2.00
2023-02-05T19:51:51.015Z,1.63
2023-02-05T19:54:20.649Z,2.20
2023-02-05T19:56:48.945Z,1.75
2023-02-05T19:59:16.877Z,1.98
2023-02-05T20:01:44.869Z,2.33
2023-02-05T20:04:17.437Z,2.30
2023-02-05T20:06:46.465Z,2.70
2023-02-05T20:09:14.845Z,1.75
2023-02-05T20:11:44.857Z,3.55
2023-02-05T20:14:12.562Z,1.95
2023-02-05T20:16:40.473Z,2.47
2023-02-05T20:19:09.727Z,4.57
2023-02-05T20:21:37.287Z,3.50
2023-02-05T20:24:04.932Z,8.80
2023-02-05T20:26:32.163Z,2.80
2023-02-05T20:29:17.282Z,3.92
2023-02-05T20:31:48.486Z,2.38
2023-02-05T20:34:22.555Z,4.25
2023-02-05T20:36:56.088Z,5.97
2023-02-05T20:39:32.027Z,6.85
2023-02-05T20:41:59.701Z,9.77
2023-02-05T20:44:31.069Z,7.70
2023-02-05T20:46:58.006Z,3.17
2023-02-05T20:49:25.484Z,3.70
2023-02-05T20:51:53.310Z,6.15
2023-02-05T20:54:21.233Z,4.28
2023-02-05T20:56:51.343Z,5.75
2023-02-05T20:59:18.098Z,6.13
2023-02-05T21:01:44.897Z,5.07
2023-02-05T21:04:11.688Z,4.53
2023-02-05T21:06:40.880Z,5.88
2023-02-05T21:09:10.173Z,2.80
2023-02-05T21:11:38.878Z,4.97
2023-02-05T21:14:07.204Z,5.47
2023-02-05T21:16:35.684Z,3.30
2023-02-05T21:19:05.739Z,2.78
2023-02-05T21:21:36.114Z,3.67
2023-02-05T21:24:11.155Z,2.20
2023-02-05T21:26:42.045Z,3.38
2023-02-05T21:29:15.575Z,2.08
2023-02-05T21:31:50.196Z,2.72
2023-02-05T21:34:25.020Z,4.50
2023-02-05T21:36:52.918Z,2.78
2023-02-05T21:39:22.411Z,4.60
2023-02-05T21:41:53.505Z,4.40
2023-02-05T21:44:20.635Z,4.10
2023-02-05T21:46:47.537Z,3.38
2023-02-05T21:49:14.584Z,4.63
2023-02-05T21:51:42.567Z,4.30
2023-02-05T21:54:11.094Z,3.13
2023-02-05T21:56:42.127Z,4.82
2023-02-05T21:59:11.490Z,5.13
2023-02-05T22:01:39.132Z,5.03
2023-02-05T22:04:11.676Z,2.90
2023-02-05T22:06:39.305Z,4.03
2023-02-05T22:09:09.927Z,5.80
2023-02-05T22:11:38.575Z,4.70
2023-02-05T22:14:05.591Z,2.35
2023-02-05T22:16:34.437Z,4.00
2023-02-05T22:19:02.405Z,3.65
2023-02-05T22:21:33.566Z,4.43
2023-02-05T22:24:02.575Z,4.60
2023-02-05T22:26:33.780Z,3.67
2023-02-05T22:29:01.921Z,2.55
2023-02-05T22:31:29.936Z,4.10
2023-02-05T22:33:57.639Z,5.82
2023-02-05T22:36:29.026Z,2.88
2023-02-05T22:38:56.621Z,5.22
2023-02-05T22:41:33.071Z,3.72
2023-02-05T22:44:01.910Z,3.85
2023-02-05T22:46:35.447Z,4.50
2023-02-05T22:49:03.999Z,4.68
2023-02-05T22:51:37.680Z,4.22
2023-02-05T22:54:05.578Z,3.22
2023-02-05T22:56:32.953Z,4.93
2023-02-05T22:59:02.777Z,8.25
2023-02-05T23:01:33.691Z,4.22
2023-02-05T23:04:02.759Z,5.90
2023-02-05T23:06:34.051Z,6.03
2023-02-05T23:09:06.716Z,9.13
2023-02-05T23:11:35.436Z,10.68
2023-02-05T23:14:04.505Z,3.08
2023-02-05T23:16:36.332Z,5.28
2023-02-05T23:19:07.981Z,4.15
2023-02-05T23:21:37.529Z,2.78
2023-02-05T23:24:04.941Z,3.25
2023-02-05T23:26:39.918Z,2.15
2023-02-05T23:29:07.416Z,5.93
2023-02-05T23:31:34.743Z,3.95
2023-02-05T23:34:01.708Z,3.10
2023-02-05T23:36:28.851Z,3.10
2023-02-05T23:38:55.740Z,5.60
2023-02-05T23:41:37.665Z,2.28
2023-02-05T23:44:18.789Z,3.03
2023-02-05T23:46:48.783Z,3.03
2023-02-05T23:49:16.664Z,2.30
2023-02-05T23:51:44.634Z,2.42
2023-02-05T23:54:12.378Z,2.45
2023-02-05T23:56:39.923Z,1.73
2023-02-05T23:59:08.212Z,4.05
